Richardson's Hourly Summary for Thursday, May 10, 2018
Hour Temp
(f)
RH
(%)
Solar Rad.
(MJ/m2)
Rainfall
(in)
Wind
(mph)
5/10/2018 12:00 AM 75 50 0 0 3.5
5/10/2018 1:00 AM 75 43 0 0 6.04
5/10/2018 2:00 AM 73 45 0 0 7.42
5/10/2018 3:00 AM 71 49 0 0 6.32
5/10/2018 4:00 AM 70 53 0 0 5.33
5/10/2018 5:00 AM 68 55 0 0 3.98
5/10/2018 6:00 AM 67 59 0 0 4.19
5/10/2018 7:00 AM 65 66 0.02 0 4.5
5/10/2018 8:00 AM 66 76 0.54 0 6.65
5/10/2018 9:00 AM 69 69 1.22 0 8.6
5/10/2018 10:00 AM 73 57 1.91 0 6.8
5/10/2018 11:00 AM 76 46 2.59 0 6.86
5/10/2018 12:00 PM 79 39 3.06 0 7.62
5/10/2018 1:00 PM 80 34 3.3 0 10.11
5/10/2018 2:00 PM 82 32 3.36 0 10.14
5/10/2018 3:00 PM 82 37 3.16 0 9.01
5/10/2018 4:00 PM 83 35 2.87 0 9.02
5/10/2018 5:00 PM 83 35 2.12 0 9.51
5/10/2018 6:00 PM 83 39 1.69 0 10.39
5/10/2018 7:00 PM 82 41 0.95 0 10.69
5/10/2018 8:00 PM 81 41 0.25 0 9.35
5/10/2018 9:00 PM 79 45 0.01 0 6.43
5/10/2018 10:00 PM 78 47 0 0 6.71
5/10/2018 11:00 PM 76 49 0 0 6.21
Data Summary 75 47 27.05 0.00 7.31